Terminal Aerodrome Forecast
Issued by NWS

Current Version | Previous Version | Text Only | Print | Product List | Glossary Off
Versions: 1 2 3 4 5 6 7 8 9 10 11 12 13 14 15 16 17 18 19 20 21 22 23 24 25 26

000
FTUS41 KRLX 210233 AAA
TAFCKB
TAF AMD
KCKB 210233Z 2103/2124 00000KT 2SM BR BKN250
     FM210400 00000KT 1SM BR SCT001
     FM210500 00000KT 1/4SM FG VV001
     FM211200 VRB03KT 2SM BR BKN002
     FM211300 VRB03KT P6SM BKN250
     FM211600 19004KT P6SM SCT025
     FM211900 21005KT P6SM SCT035
     FM212200 VRB03KT P6SM BKN150=

USA.gov is the U.S. government's official web portal to all federal, state and local government web resources and services.